createdAt,value
2019-05-18T00:01:04.258Z,1007.6
2019-05-18T00:06:36.798Z,1007.6
2019-05-18T00:12:09.418Z,1007.5
2019-05-18T00:17:41.956Z,1007.6
2019-05-18T00:23:14.572Z,1007.7
2019-05-18T00:28:47.110Z,1007.6
2019-05-18T00:34:19.752Z,1007.5
2019-05-18T00:39:52.262Z,1007.5
2019-05-18T00:45:24.868Z,1007.4
2019-05-18T00:50:57.382Z,1007.5
2019-05-18T00:56:29.963Z,1007.4
2019-05-18T01:02:02.563Z,1007.3
2019-05-18T01:07:35.069Z,1007.3
2019-05-18T01:13:07.620Z,1007.3
2019-05-18T01:18:40.157Z,1007.2
2019-05-18T01:24:12.766Z,1007.2
2019-05-18T01:29:45.305Z,1007.1
2019-05-18T01:35:17.822Z,1007.2
2019-05-18T01:40:50.666Z,1007.2
2019-05-18T01:46:23.186Z,1007.3
2019-05-18T01:51:55.710Z,1007.3
2019-05-18T01:57:28.129Z,1007.4
2019-05-18T02:03:00.626Z,1007.4
2019-05-18T02:08:33.917Z,1007.5
2019-05-18T02:14:07.246Z,1007.4
2019-05-18T02:19:40.553Z,1007.5
2019-05-18T02:25:14.133Z,1007.5
2019-05-18T02:30:46.073Z,1007.4
2019-05-18T02:36:18.552Z,1007.4
2019-05-18T02:41:51.064Z,1007.5
2019-05-18T02:47:23.509Z,1007.4
2019-05-18T02:52:56.056Z,1007.3
2019-05-18T02:58:28.562Z,1007.2
2019-05-18T03:04:01.001Z,1007.2
2019-05-18T03:09:33.519Z,1007.1
2019-05-18T03:15:06.075Z,1007.1
2019-05-18T03:20:38.478Z,1007.1
2019-05-18T03:26:11.011Z,1007
2019-05-18T03:31:43.553Z,1006.9
2019-05-18T03:37:16.023Z,1006.9
2019-05-18T03:42:48.497Z,1007
2019-05-18T03:48:21.010Z,1006.9
2019-05-18T03:53:53.551Z,1007
2019-05-18T03:59:26.030Z,1007
2019-05-18T04:04:58.515Z,1007
2019-05-18T04:10:31.734Z,1007.1
2019-05-18T04:16:05.062Z,1007
2019-05-18T04:21:39.201Z,1007
2019-05-18T04:27:10.755Z,1007
2019-05-18T04:32:43.277Z,1007
2019-05-18T04:38:15.880Z,1007.1
2019-05-18T04:43:48.434Z,1007
2019-05-18T04:49:20.939Z,1007
2019-05-18T04:54:53.558Z,1006.9
2019-05-18T05:00:26.163Z,1006.9
2019-05-18T05:05:58.780Z,1006.8
2019-05-18T05:11:31.364Z,1006.8
2019-05-18T05:17:04.079Z,1006.7
2019-05-18T05:22:36.787Z,1006.7
2019-05-18T05:28:09.485Z,1006.8
2019-05-18T05:33:42.100Z,1006.8
2019-05-18T05:39:14.769Z,1006.8
2019-05-18T05:44:48.004Z,1006.8
2019-05-18T05:50:34.428Z,1006.8
2019-05-18T05:55:55.098Z,1006.7
2019-05-18T06:01:28.526Z,1006.6
2019-05-18T06:07:02.195Z,1006.4
2019-05-18T06:12:35.646Z,1006.4
2019-05-18T06:18:08.878Z,1006.4
2019-05-18T06:23:42.476Z,1006.3
2019-05-18T06:29:16.171Z,1006.3
2019-05-18T06:34:49.879Z,1006.3
2019-05-18T06:40:23.597Z,1006.4
2019-05-18T06:45:57.358Z,1006.3
2019-05-18T06:51:31.096Z,1006.2
2019-05-18T06:57:04.942Z,1006.2
2019-05-18T07:02:38.869Z,1006.2
2019-05-18T07:08:12.779Z,1006.2
2019-05-18T07:13:46.668Z,1006.1
2019-05-18T07:19:20.093Z,1006.1
2019-05-18T07:24:53.358Z,1006
2019-05-18T07:30:26.672Z,1005.9
2019-05-18T07:36:00.616Z,1005.8
2019-05-18T07:41:45.777Z,1005.7
2019-05-18T07:47:07.797Z,1005.8
2019-05-18T07:52:41.534Z,1005.7
2019-05-18T07:58:15.578Z,1005.8
2019-05-18T08:03:49.544Z,1005.7
2019-05-18T08:09:23.768Z,1005.6
2019-05-18T08:14:57.303Z,1005.4
2019-05-18T08:20:32.211Z,1005.4
2019-05-18T08:26:05.001Z,1005.3
2019-05-18T08:31:38.848Z,1005.2
2019-05-18T08:37:12.867Z,1005.2
2019-05-18T08:42:47.344Z,1005.2
2019-05-18T08:48:21.113Z,1004.9
2019-05-18T08:53:55.121Z,1004.8
2019-05-18T08:59:29.884Z,1004.9
2019-05-18T09:05:05.039Z,1004.8
2019-05-18T09:10:39.439Z,1004.9
2019-05-18T09:16:13.865Z,1004.8
2019-05-18T09:21:48.622Z,1004.8
2019-05-18T09:27:23.497Z,1004.7
2019-05-18T09:32:57.930Z,1004.7
2019-05-18T09:38:33.474Z,1004.6
2019-05-18T09:44:07.327Z,1004.8
2019-05-18T09:49:42.363Z,1004.7
2019-05-18T10:12:04.606Z,1004.9
2019-05-18T10:28:50.897Z,1004.9
2019-05-18T11:24:46.739Z,1004.5
2019-05-18T11:30:21.944Z,1004.5
2019-05-18T12:15:09.183Z,1004.4
2019-05-18T13:05:30.233Z,1004.4
2019-05-18T13:27:51.090Z,1004.1
2019-05-18T13:33:25.409Z,1004
2019-05-18T13:38:59.960Z,1003.9
2019-05-18T13:55:45.630Z,1003.9
2019-05-18T14:18:05.791Z,1003.8
2019-05-18T14:23:39.788Z,1003.7
2019-05-18T14:29:14.324Z,1003.7
2019-05-18T14:34:49.211Z,1003.8
2019-05-18T14:40:23.749Z,1003.7
2019-05-18T14:45:58.510Z,1003.7
2019-05-18T14:51:33.371Z,1003.8
2019-05-18T14:57:08.100Z,1003.8
2019-05-18T15:02:42.758Z,1003.8
2019-05-18T15:08:16.831Z,1003.8
2019-05-18T15:13:50.970Z,1003.7
2019-05-18T15:19:24.880Z,1003.8
2019-05-18T15:24:58.852Z,1003.8
2019-05-18T15:30:32.818Z,1003.7
2019-05-18T15:36:06.833Z,1003.8
2019-05-18T15:41:40.943Z,1003.8
2019-05-18T15:47:15.549Z,1003.9
2019-05-18T15:52:49.874Z,1003.8
2019-05-18T15:58:24.210Z,1003.9
2019-05-18T16:09:34.413Z,1004
2019-05-18T16:15:08.771Z,1004
2019-05-18T16:20:42.727Z,1004.1
2019-05-18T16:26:21.364Z,1004.1
2019-05-18T16:31:51.203Z,1004.1
2019-05-18T16:37:25.293Z,1004.2
2019-05-18T16:42:59.825Z,1004.2
2019-05-18T16:48:34.361Z,1004.2
2019-05-18T16:54:08.735Z,1004.2
2019-05-18T16:59:42.305Z,1004.2
2019-05-18T17:05:15.901Z,1004.3
2019-05-18T17:10:49.433Z,1004.3
2019-05-18T17:16:22.961Z,1004.3
2019-05-18T17:21:56.520Z,1004.3
2019-05-18T17:27:30.547Z,1004.3
2019-05-18T17:38:38.836Z,1004.4
2019-05-18T17:44:12.792Z,1004.4
2019-05-18T18:00:54.910Z,1004.6
2019-05-18T18:06:28.373Z,1004.7
2019-05-18T18:12:01.623Z,1004.8
2019-05-18T18:17:34.850Z,1005
2019-05-18T18:23:08.058Z,1005.1
2019-05-18T18:28:41.218Z,1005.2
2019-05-18T18:34:14.467Z,1005.3
2019-05-18T18:39:47.578Z,1005.3
2019-05-18T18:45:20.619Z,1005.4
2019-05-18T18:50:53.832Z,1005.4
2019-05-18T18:56:26.878Z,1005.4
2019-05-18T19:02:00.652Z,1005.6
2019-05-18T19:07:32.848Z,1005.7
2019-05-18T19:13:05.873Z,1005.8
2019-05-18T19:18:38.827Z,1005.9
2019-05-18T19:24:11.774Z,1006
2019-05-18T19:29:44.678Z,1006
2019-05-18T19:35:17.812Z,1006.2
2019-05-18T19:40:51.750Z,1006.3
2019-05-18T19:46:24.597Z,1006.3
2019-05-18T19:51:57.519Z,1006.3
2019-05-18T19:57:30.436Z,1006.2
2019-05-18T20:03:03.276Z,1006.2
2019-05-18T20:08:36.256Z,1006.2
2019-05-18T20:14:09.187Z,1006.3
2019-05-18T20:19:42.120Z,1006.3
2019-05-18T20:25:15.349Z,1006.3
2019-05-18T20:30:48.319Z,1006.3
2019-05-18T20:36:21.095Z,1006.3
2019-05-18T20:41:54.034Z,1006.3
2019-05-18T20:47:26.945Z,1006.3
2019-05-18T20:52:59.762Z,1006.3
2019-05-18T20:58:39.757Z,1006.3
2019-05-18T21:04:05.618Z,1006.3
2019-05-18T21:09:38.539Z,1006.4
2019-05-18T21:15:04.826Z,1006.5
2019-05-18T21:20:37.621Z,1006.6
2019-05-18T21:26:03.105Z,1006.7
2019-05-18T21:31:28.130Z,1006.8
2019-05-18T21:37:00.846Z,1006.8
2019-05-18T21:42:27.918Z,1006.9
2019-05-18T21:48:00.624Z,1006.8
2019-05-18T21:53:33.303Z,1006.8
2019-05-18T21:59:11.466Z,1006.7
2019-05-18T22:04:38.713Z,1006.7
2019-05-18T22:10:24.723Z,1006.8
2019-05-18T22:15:44.168Z,1006.8
2019-05-18T22:21:16.809Z,1006.8
2019-05-18T22:26:49.516Z,1006.7
2019-05-18T22:32:22.502Z,1006.8
2019-05-18T22:37:54.906Z,1006.8
2019-05-18T22:43:27.601Z,1006.8
2019-05-18T22:49:00.244Z,1006.8
2019-05-18T22:54:32.979Z,1006.8
2019-05-18T23:00:05.665Z,1006.8
2019-05-18T23:05:38.299Z,1006.8
2019-05-18T23:11:10.949Z,1006.7
2019-05-18T23:16:43.657Z,1006.7
2019-05-18T23:22:16.363Z,1006.6
2019-05-18T23:27:49.043Z,1006.7
2019-05-18T23:33:21.750Z,1006.7
2019-05-18T23:38:54.466Z,1006.7
2019-05-18T23:44:27.168Z,1006.7
2019-05-18T23:49:59.866Z,1006.6
2019-05-18T23:55:32.580Z,1006.7
